sensor_id;sensor_type;location;lat;lon;timestamp;P1;durP1;ratioP1;P2;durP2;ratioP2
72422;SDS011;60413;55.658;37.498;2022-11-06T00:00:33;18.25;;;9.07;;
72422;SDS011;60413;55.658;37.498;2022-11-06T00:03:00;15.75;;;9.15;;
72422;SDS011;60413;55.658;37.498;2022-11-06T00:05:34;18.65;;;10.30;;
72422;SDS011;60413;55.658;37.498;2022-11-06T00:08:32;16.80;;;8.80;;
72422;SDS011;60413;55.658;37.498;2022-11-06T00:11:01;20.20;;;9.90;;
72422;SDS011;60413;55.658;37.498;2022-11-06T00:13:33;17.52;;;9.50;;
72422;SDS011;60413;55.658;37.498;2022-11-06T00:16:03;16.83;;;8.27;;
72422;SDS011;60413;55.658;37.498;2022-11-06T00:18:31;14.80;;;8.00;;
72422;SDS011;60413;55.658;37.498;2022-11-06T00:20:57;14.15;;;8.25;;
72422;SDS011;60413;55.658;37.498;2022-11-06T00:23:26;14.43;;;8.32;;
72422;SDS011;60413;55.658;37.498;2022-11-06T00:25:52;14.35;;;7.22;;
72422;SDS011;60413;55.658;37.498;2022-11-06T00:28:20;17.15;;;8.65;;
72422;SDS011;60413;55.658;37.498;2022-11-06T00:30:59;15.30;;;8.38;;
72422;SDS011;60413;55.658;37.498;2022-11-06T00:33:35;14.00;;;7.53;;
72422;SDS011;60413;55.658;37.498;2022-11-06T00:36:04;12.93;;;7.47;;
72422;SDS011;60413;55.658;37.498;2022-11-06T00:38:32;17.20;;;8.57;;
72422;SDS011;60413;55.658;37.498;2022-11-06T00:41:05;17.55;;;8.25;;
72422;SDS011;60413;55.658;37.498;2022-11-06T00:43:36;15.73;;;8.30;;
72422;SDS011;60413;55.658;37.498;2022-11-06T00:46:03;16.02;;;8.55;;
72422;SDS011;60413;55.658;37.498;2022-11-06T00:48:34;14.45;;;7.57;;
72422;SDS011;60413;55.658;37.498;2022-11-06T00:51:04;13.43;;;7.05;;
72422;SDS011;60413;55.658;37.498;2022-11-06T00:53:35;14.90;;;8.23;;
72422;SDS011;60413;55.658;37.498;2022-11-06T00:56:03;11.68;;;7.32;;
72422;SDS011;60413;55.658;37.498;2022-11-06T00:58:33;14.32;;;7.47;;
72422;SDS011;60413;55.658;37.498;2022-11-06T01:01:09;14.68;;;7.95;;
72422;SDS011;60413;55.658;37.498;2022-11-06T01:03:39;10.05;;;5.63;;
72422;SDS011;60413;55.658;37.498;2022-11-06T01:06:13;13.38;;;7.68;;
72422;SDS011;60413;55.658;37.498;2022-11-06T01:08:42;13.98;;;7.68;;
72422;SDS011;60413;55.658;37.498;2022-11-06T01:11:30;16.63;;;8.45;;
72422;SDS011;60413;55.658;37.498;2022-11-06T01:13:59;14.23;;;7.28;;
72422;SDS011;60413;55.658;37.498;2022-11-06T01:16:27;13.38;;;7.03;;
72422;SDS011;60413;55.658;37.498;2022-11-06T01:18:54;13.15;;;7.07;;
72422;SDS011;60413;55.658;37.498;2022-11-06T01:21:32;13.48;;;7.28;;
72422;SDS011;60413;55.658;37.498;2022-11-06T01:24:04;13.93;;;7.78;;
72422;SDS011;60413;55.658;37.498;2022-11-06T01:26:33;15.18;;;7.20;;
72422;SDS011;60413;55.658;37.498;2022-11-06T01:28:59;15.75;;;7.30;;
72422;SDS011;60413;55.658;37.498;2022-11-06T01:31:27;14.30;;;7.45;;
72422;SDS011;60413;55.658;37.498;2022-11-06T01:33:54;12.88;;;7.13;;
72422;SDS011;60413;55.658;37.498;2022-11-06T01:36:26;21.08;;;7.47;;
72422;SDS011;60413;55.658;37.498;2022-11-06T01:38:55;17.75;;;7.80;;
72422;SDS011;60413;55.658;37.498;2022-11-06T01:41:24;14.88;;;7.25;;
72422;SDS011;60413;55.658;37.498;2022-11-06T01:46:26;14.20;;;8.55;;
72422;SDS011;60413;55.658;37.498;2022-11-06T01:49:01;23.38;;;9.50;;
72422;SDS011;60413;55.658;37.498;2022-11-06T01:51:49;18.10;;;10.02;;
72422;SDS011;60413;55.658;37.498;2022-11-06T01:54:19;20.90;;;9.73;;
72422;SDS011;60413;55.658;37.498;2022-11-06T01:56:53;21.08;;;9.43;;
72422;SDS011;60413;55.658;37.498;2022-11-06T01:59:22;20.58;;;10.68;;
72422;SDS011;60413;55.658;37.498;2022-11-06T02:01:53;28.05;;;10.25;;
72422;SDS011;60413;55.658;37.498;2022-11-06T02:06:48;22.65;;;10.75;;
72422;SDS011;60413;55.658;37.498;2022-11-06T02:09:15;24.80;;;10.75;;
72422;SDS011;60413;55.658;37.498;2022-11-06T02:11:50;20.95;;;10.80;;
72422;SDS011;60413;55.658;37.498;2022-11-06T02:14:23;21.35;;;10.90;;
72422;SDS011;60413;55.658;37.498;2022-11-06T02:17:02;24.17;;;11.52;;
72422;SDS011;60413;55.658;37.498;2022-11-06T02:19:38;23.60;;;11.10;;
72422;SDS011;60413;55.658;37.498;2022-11-06T02:22:46;23.17;;;11.63;;
72422;SDS011;60413;55.658;37.498;2022-11-06T02:28:09;26.17;;;11.70;;
72422;SDS011;60413;55.658;37.498;2022-11-06T02:30:45;18.35;;;10.45;;
72422;SDS011;60413;55.658;37.498;2022-11-06T02:33:32;22.73;;;10.63;;
72422;SDS011;60413;55.658;37.498;2022-11-06T02:36:03;20.83;;;10.55;;
72422;SDS011;60413;55.658;37.498;2022-11-06T02:38:36;21.77;;;10.25;;
72422;SDS011;60413;55.658;37.498;2022-11-06T02:41:09;20.95;;;10.15;;
72422;SDS011;60413;55.658;37.498;2022-11-06T02:43:44;23.92;;;11.43;;
72422;SDS011;60413;55.658;37.498;2022-11-06T02:46:16;26.33;;;10.68;;
72422;SDS011;60413;55.658;37.498;2022-11-06T02:48:51;24.27;;;11.10;;
72422;SDS011;60413;55.658;37.498;2022-11-06T02:51:23;28.80;;;11.32;;
72422;SDS011;60413;55.658;37.498;2022-11-06T02:53:53;21.85;;;11.02;;
72422;SDS011;60413;55.658;37.498;2022-11-06T02:56:26;20.17;;;9.55;;
72422;SDS011;60413;55.658;37.498;2022-11-06T02:59:02;18.90;;;9.75;;
72422;SDS011;60413;55.658;37.498;2022-11-06T03:01:36;17.45;;;10.00;;
72422;SDS011;60413;55.658;37.498;2022-11-06T03:04:22;19.10;;;10.18;;
72422;SDS011;60413;55.658;37.498;2022-11-06T03:06:56;21.58;;;9.68;;
72422;SDS011;60413;55.658;37.498;2022-11-06T03:09:33;19.67;;;9.30;;
72422;SDS011;60413;55.658;37.498;2022-11-06T03:12:19;17.27;;;8.57;;
72422;SDS011;60413;55.658;37.498;2022-11-06T03:14:58;25.52;;;10.50;;
72422;SDS011;60413;55.658;37.498;2022-11-06T03:17:40;22.25;;;10.48;;
72422;SDS011;60413;55.658;37.498;2022-11-06T03:20:38;18.20;;;8.90;;
72422;SDS011;60413;55.658;37.498;2022-11-06T03:23:08;21.75;;;10.18;;
72422;SDS011;60413;55.658;37.498;2022-11-06T03:25:54;20.67;;;10.15;;
72422;SDS011;60413;55.658;37.498;2022-11-06T03:31:00;23.92;;;10.30;;
72422;SDS011;60413;55.658;37.498;2022-11-06T03:36:08;17.83;;;10.15;;
72422;SDS011;60413;55.658;37.498;2022-11-06T03:39:19;17.13;;;9.00;;
72422;SDS011;60413;55.658;37.498;2022-11-06T03:41:42;22.88;;;9.82;;
72422;SDS011;60413;55.658;37.498;2022-11-06T03:44:13;19.98;;;9.50;;
72422;SDS011;60413;55.658;37.498;2022-11-06T03:46:45;24.98;;;11.18;;
72422;SDS011;60413;55.658;37.498;2022-11-06T03:49:16;18.25;;;10.10;;
72422;SDS011;60413;55.658;37.498;2022-11-06T03:54:53;21.17;;;10.20;;
72422;SDS011;60413;55.658;37.498;2022-11-06T03:57:24;21.52;;;9.55;;
72422;SDS011;60413;55.658;37.498;2022-11-06T03:59:58;19.33;;;9.18;;
72422;SDS011;60413;55.658;37.498;2022-11-06T04:02:27;19.08;;;7.97;;
72422;SDS011;60413;55.658;37.498;2022-11-06T04:04:58;20.65;;;10.85;;
72422;SDS011;60413;55.658;37.498;2022-11-06T04:07:30;22.60;;;10.15;;
72422;SDS011;60413;55.658;37.498;2022-11-06T04:10:05;21.70;;;10.10;;
72422;SDS011;60413;55.658;37.498;2022-11-06T04:12:55;20.85;;;10.48;;
72422;SDS011;60413;55.658;37.498;2022-11-06T04:15:49;22.67;;;11.40;;
72422;SDS011;60413;55.658;37.498;2022-11-06T04:18:18;19.20;;;9.30;;
72422;SDS011;60413;55.658;37.498;2022-11-06T04:20:51;22.92;;;10.82;;
72422;SDS011;60413;55.658;37.498;2022-11-06T04:23:46;20.95;;;11.13;;
72422;SDS011;60413;55.658;37.498;2022-11-06T04:26:41;24.73;;;10.95;;
72422;SDS011;60413;55.658;37.498;2022-11-06T04:29:25;22.42;;;11.38;;
72422;SDS011;60413;55.658;37.498;2022-11-06T04:35:04;24.63;;;11.38;;
72422;SDS011;60413;55.658;37.498;2022-11-06T04:37:58;25.88;;;12.60;;
72422;SDS011;60413;55.658;37.498;2022-11-06T04:40:42;27.23;;;12.43;;
72422;SDS011;60413;55.658;37.498;2022-11-06T04:45:57;28.33;;;12.32;;
72422;SDS011;60413;55.658;37.498;2022-11-06T04:48:25;28.00;;;10.38;;
72422;SDS011;60413;55.658;37.498;2022-11-06T04:50:54;24.33;;;11.63;;
72422;SDS011;60413;55.658;37.498;2022-11-06T04:53:24;23.75;;;12.38;;
72422;SDS011;60413;55.658;37.498;2022-11-06T04:55:55;24.63;;;12.63;;
72422;SDS011;60413;55.658;37.498;2022-11-06T05:00:54;32.08;;;12.95;;
72422;SDS011;60413;55.658;37.498;2022-11-06T05:03:23;27.58;;;12.10;;
72422;SDS011;60413;55.658;37.498;2022-11-06T05:05:49;33.38;;;12.07;;
72422;SDS011;60413;55.658;37.498;2022-11-06T05:08:18;24.45;;;11.55;;
72422;SDS011;60413;55.658;37.498;2022-11-06T05:10:45;26.67;;;12.80;;
72422;SDS011;60413;55.658;37.498;2022-11-06T05:13:12;25.20;;;13.05;;
72422;SDS011;60413;55.658;37.498;2022-11-06T05:15:39;27.23;;;12.70;;
72422;SDS011;60413;55.658;37.498;2022-11-06T05:18:11;25.08;;;12.27;;
72422;SDS011;60413;55.658;37.498;2022-11-06T05:20:37;25.27;;;13.23;;
72422;SDS011;60413;55.658;37.498;2022-11-06T05:23:06;24.85;;;11.77;;
72422;SDS011;60413;55.658;37.498;2022-11-06T05:25:33;28.40;;;10.43;;
72422;SDS011;60413;55.658;37.498;2022-11-06T05:28:05;23.45;;;11.15;;
72422;SDS011;60413;55.658;37.498;2022-11-06T05:30:33;25.95;;;11.90;;
72422;SDS011;60413;55.658;37.498;2022-11-06T05:33:03;21.35;;;11.27;;
72422;SDS011;60413;55.658;37.498;2022-11-06T05:35:30;22.15;;;11.00;;
72422;SDS011;60413;55.658;37.498;2022-11-06T05:38:01;24.13;;;11.45;;
72422;SDS011;60413;55.658;37.498;2022-11-06T05:40:29;23.38;;;11.68;;
72422;SDS011;60413;55.658;37.498;2022-11-06T05:42:55;21.73;;;10.60;;
72422;SDS011;60413;55.658;37.498;2022-11-06T05:45:22;23.25;;;10.93;;
72422;SDS011;60413;55.658;37.498;2022-11-06T05:47:48;25.48;;;11.43;;
72422;SDS011;60413;55.658;37.498;2022-11-06T05:50:16;21.10;;;10.60;;
72422;SDS011;60413;55.658;37.498;2022-11-06T05:52:42;23.00;;;11.43;;
72422;SDS011;60413;55.658;37.498;2022-11-06T05:55:08;22.42;;;11.82;;
72422;SDS011;60413;55.658;37.498;2022-11-06T05:57:37;23.10;;;11.63;;
72422;SDS011;60413;55.658;37.498;2022-11-06T06:00:08;22.08;;;10.80;;
72422;SDS011;60413;55.658;37.498;2022-11-06T06:02:39;19.67;;;10.70;;
72422;SDS011;60413;55.658;37.498;2022-11-06T06:05:08;16.88;;;7.50;;
72422;SDS011;60413;55.658;37.498;2022-11-06T06:07:34;20.17;;;10.73;;
72422;SDS011;60413;55.658;37.498;2022-11-06T06:10:01;18.58;;;9.50;;
72422;SDS011;60413;55.658;37.498;2022-11-06T06:12:28;19.42;;;9.02;;
72422;SDS011;60413;55.658;37.498;2022-11-06T06:14:57;15.48;;;8.32;;
72422;SDS011;60413;55.658;37.498;2022-11-06T06:17:23;17.33;;;9.00;;
72422;SDS011;60413;55.658;37.498;2022-11-06T06:19:50;18.15;;;8.73;;
72422;SDS011;60413;55.658;37.498;2022-11-06T06:22:16;20.65;;;10.05;;
72422;SDS011;60413;55.658;37.498;2022-11-06T06:24:42;24.52;;;9.18;;
72422;SDS011;60413;55.658;37.498;2022-11-06T06:27:09;14.52;;;7.88;;
72422;SDS011;60413;55.658;37.498;2022-11-06T06:29:36;19.20;;;8.68;;
72422;SDS011;60413;55.658;37.498;2022-11-06T06:32:03;17.05;;;8.70;;
72422;SDS011;60413;55.658;37.498;2022-11-06T06:34:34;18.92;;;10.32;;
72422;SDS011;60413;55.658;37.498;2022-11-06T06:37:01;15.43;;;7.20;;
72422;SDS011;60413;55.658;37.498;2022-11-06T06:39:29;19.52;;;8.07;;
72422;SDS011;60413;55.658;37.498;2022-11-06T06:41:55;16.05;;;9.35;;
72422;SDS011;60413;55.658;37.498;2022-11-06T06:44:27;16.02;;;8.35;;
72422;SDS011;60413;55.658;37.498;2022-11-06T06:47:01;17.70;;;8.23;;
72422;SDS011;60413;55.658;37.498;2022-11-06T06:49:34;15.10;;;8.00;;
72422;SDS011;60413;55.658;37.498;2022-11-06T06:52:03;15.07;;;8.43;;
72422;SDS011;60413;55.658;37.498;2022-11-06T06:54:33;19.33;;;8.27;;
72422;SDS011;60413;55.658;37.498;2022-11-06T06:56:59;17.65;;;8.73;;
72422;SDS011;60413;55.658;37.498;2022-11-06T06:59:31;13.38;;;8.20;;
72422;SDS011;60413;55.658;37.498;2022-11-06T07:02:00;18.45;;;7.90;;
72422;SDS011;60413;55.658;37.498;2022-11-06T07:04:33;16.23;;;7.67;;
72422;SDS011;60413;55.658;37.498;2022-11-06T07:07:15;14.13;;;7.43;;
72422;SDS011;60413;55.658;37.498;2022-11-06T07:09:50;11.55;;;5.95;;
72422;SDS011;60413;55.658;37.498;2022-11-06T07:12:17;13.90;;;8.25;;
72422;SDS011;60413;55.658;37.498;2022-11-06T07:14:43;13.90;;;7.38;;
72422;SDS011;60413;55.658;37.498;2022-11-06T07:17:10;15.73;;;7.20;;
72422;SDS011;60413;55.658;37.498;2022-11-06T07:19:40;18.20;;;7.43;;
72422;SDS011;60413;55.658;37.498;2022-11-06T07:22:10;16.00;;;7.22;;
72422;SDS011;60413;55.658;37.498;2022-11-06T07:24:36;14.38;;;7.10;;
72422;SDS011;60413;55.658;37.498;2022-11-06T07:27:05;13.10;;;7.50;;
72422;SDS011;60413;55.658;37.498;2022-11-06T07:29:34;15.40;;;7.13;;
72422;SDS011;60413;55.658;37.498;2022-11-06T07:32:00;14.95;;;7.32;;
72422;SDS011;60413;55.658;37.498;2022-11-06T07:34:26;14.02;;;7.07;;
72422;SDS011;60413;55.658;37.498;2022-11-06T07:36:54;13.65;;;7.00;;
72422;SDS011;60413;55.658;37.498;2022-11-06T07:39:21;13.88;;;7.68;;
72422;SDS011;60413;55.658;37.498;2022-11-06T07:41:53;13.40;;;6.65;;
72422;SDS011;60413;55.658;37.498;2022-11-06T07:44:32;13.02;;;7.55;;
72422;SDS011;60413;55.658;37.498;2022-11-06T07:47:01;15.73;;;8.35;;
72422;SDS011;60413;55.658;37.498;2022-11-06T07:49:28;16.20;;;7.20;;
72422;SDS011;60413;55.658;37.498;2022-11-06T07:51:54;14.05;;;7.35;;
72422;SDS011;60413;55.658;37.498;2022-11-06T07:54:24;13.63;;;7.50;;
72422;SDS011;60413;55.658;37.498;2022-11-06T07:56:53;13.52;;;7.70;;
72422;SDS011;60413;55.658;37.498;2022-11-06T07:59:19;15.80;;;7.75;;
72422;SDS011;60413;55.658;37.498;2022-11-06T08:01:46;16.95;;;8.18;;
72422;SDS011;60413;55.658;37.498;2022-11-06T08:04:12;15.18;;;8.30;;
72422;SDS011;60413;55.658;37.498;2022-11-06T08:06:39;16.77;;;7.47;;
72422;SDS011;60413;55.658;37.498;2022-11-06T08:09:06;15.98;;;7.80;;
72422;SDS011;60413;55.658;37.498;2022-11-06T08:11:35;16.02;;;8.27;;
72422;SDS011;60413;55.658;37.498;2022-11-06T08:14:02;17.20;;;8.98;;
72422;SDS011;60413;55.658;37.498;2022-11-06T08:16:34;17.48;;;8.98;;
72422;SDS011;60413;55.658;37.498;2022-11-06T08:19:01;14.38;;;7.93;;
72422;SDS011;60413;55.658;37.498;2022-11-06T08:21:28;19.05;;;9.90;;
72422;SDS011;60413;55.658;37.498;2022-11-06T08:24:00;18.98;;;8.77;;
72422;SDS011;60413;55.658;37.498;2022-11-06T08:26:29;20.70;;;9.60;;
72422;SDS011;60413;55.658;37.498;2022-11-06T08:28:55;16.75;;;8.38;;
72422;SDS011;60413;55.658;37.498;2022-11-06T08:31:22;18.23;;;9.30;;
72422;SDS011;60413;55.658;37.498;2022-11-06T08:36:56;19.80;;;9.70;;
72422;SDS011;60413;55.658;37.498;2022-11-06T08:39:23;16.45;;;9.35;;
72422;SDS011;60413;55.658;37.498;2022-11-06T08:41:51;19.77;;;10.70;;
72422;SDS011;60413;55.658;37.498;2022-11-06T08:47:23;19.73;;;10.03;;
72422;SDS011;60413;55.658;37.498;2022-11-06T08:52:44;23.50;;;10.18;;
72422;SDS011;60413;55.658;37.498;2022-11-06T08:55:12;24.17;;;10.80;;
72422;SDS011;60413;55.658;37.498;2022-11-06T08:57:46;22.50;;;10.30;;
72422;SDS011;60413;55.658;37.498;2022-11-06T09:00:27;23.92;;;11.65;;
72422;SDS011;60413;55.658;37.498;2022-11-06T09:03:07;23.67;;;11.48;;
72422;SDS011;60413;55.658;37.498;2022-11-06T09:09:13;26.13;;;12.07;;
72422;SDS011;60413;55.658;37.498;2022-11-06T09:11:50;25.50;;;11.20;;
72422;SDS011;60413;55.658;37.498;2022-11-06T09:14:28;22.20;;;11.48;;
72422;SDS011;60413;55.658;37.498;2022-11-06T09:16:55;21.73;;;11.18;;
72422;SDS011;60413;55.658;37.498;2022-11-06T09:19:23;19.05;;;8.52;;
72422;SDS011;60413;55.658;37.498;2022-11-06T09:21:52;24.35;;;11.45;;
72422;SDS011;60413;55.658;37.498;2022-11-06T09:24:24;26.95;;;13.05;;
72422;SDS011;60413;55.658;37.498;2022-11-06T09:26:51;21.45;;;11.48;;
72422;SDS011;60413;55.658;37.498;2022-11-06T09:29:19;24.27;;;11.85;;
72422;SDS011;60413;55.658;37.498;2022-11-06T09:31:50;25.88;;;13.35;;
72422;SDS011;60413;55.658;37.498;2022-11-06T09:34:18;19.77;;;10.68;;
72422;SDS011;60413;55.658;37.498;2022-11-06T09:37:20;22.85;;;13.18;;
72422;SDS011;60413;55.658;37.498;2022-11-06T09:39:49;19.83;;;8.40;;
72422;SDS011;60413;55.658;37.498;2022-11-06T09:45:13;21.77;;;11.10;;
72422;SDS011;60413;55.658;37.498;2022-11-06T09:47:59;22.30;;;11.35;;
72422;SDS011;60413;55.658;37.498;2022-11-06T09:50:36;20.70;;;10.20;;
72422;SDS011;60413;55.658;37.498;2022-11-06T09:53:14;23.75;;;10.48;;
72422;SDS011;60413;55.658;37.498;2022-11-06T10:04:50;17.48;;;9.60;;
72422;SDS011;60413;55.658;37.498;2022-11-06T10:07:23;17.33;;;9.50;;
72422;SDS011;60413;55.658;37.498;2022-11-06T10:09:58;18.40;;;9.88;;
72422;SDS011;60413;55.658;37.498;2022-11-06T10:15:29;19.77;;;9.35;;
72422;SDS011;60413;55.658;37.498;2022-11-06T10:20:50;15.32;;;7.80;;
72422;SDS011;60413;55.658;37.498;2022-11-06T10:23:22;17.00;;;8.73;;
72422;SDS011;60413;55.658;37.498;2022-11-06T10:26:07;18.55;;;8.73;;
72422;SDS011;60413;55.658;37.498;2022-11-06T10:31:22;16.30;;;7.85;;
72422;SDS011;60413;55.658;37.498;2022-11-06T10:34:20;18.23;;;8.13;;
72422;SDS011;60413;55.658;37.498;2022-11-06T10:36:56;14.95;;;7.50;;
72422;SDS011;60413;55.658;37.498;2022-11-06T10:39:33;15.88;;;8.60;;
72422;SDS011;60413;55.658;37.498;2022-11-06T10:42:05;16.92;;;8.45;;
72422;SDS011;60413;55.658;37.498;2022-11-06T10:45:01;17.27;;;7.32;;
72422;SDS011;60413;55.658;37.498;2022-11-06T10:47:49;17.35;;;7.72;;
72422;SDS011;60413;55.658;37.498;2022-11-06T10:50:20;15.30;;;7.90;;
72422;SDS011;60413;55.658;37.498;2022-11-06T10:58:52;20.08;;;8.20;;
72422;SDS011;60413;55.658;37.498;2022-11-06T11:01:20;17.13;;;8.55;;
72422;SDS011;60413;55.658;37.498;2022-11-06T11:03:50;17.85;;;9.63;;
72422;SDS011;60413;55.658;37.498;2022-11-06T11:06:17;17.52;;;8.32;;
72422;SDS011;60413;55.658;37.498;2022-11-06T11:08:47;13.60;;;7.65;;
72422;SDS011;60413;55.658;37.498;2022-11-06T11:11:23;19.45;;;8.07;;
72422;SDS011;60413;55.658;37.498;2022-11-06T11:16:34;17.83;;;8.45;;
72422;SDS011;60413;55.658;37.498;2022-11-06T11:19:33;14.98;;;7.70;;
72422;SDS011;60413;55.658;37.498;2022-11-06T11:22:23;18.25;;;7.82;;
72422;SDS011;60413;55.658;37.498;2022-11-06T11:25:02;13.77;;;6.88;;
72422;SDS011;60413;55.658;37.498;2022-11-06T11:27:44;15.80;;;7.60;;
72422;SDS011;60413;55.658;37.498;2022-11-06T11:32:55;15.98;;;7.65;;
72422;SDS011;60413;55.658;37.498;2022-11-06T11:35:33;19.13;;;8.85;;
72422;SDS011;60413;55.658;37.498;2022-11-06T11:38:17;21.15;;;8.85;;
72422;SDS011;60413;55.658;37.498;2022-11-06T11:40:46;18.48;;;8.55;;
72422;SDS011;60413;55.658;37.498;2022-11-06T11:48:56;19.20;;;8.43;;
72422;SDS011;60413;55.658;37.498;2022-11-06T11:56:48;20.83;;;9.20;;
72422;SDS011;60413;55.658;37.498;2022-11-06T11:59:40;18.45;;;9.10;;
72422;SDS011;60413;55.658;37.498;2022-11-06T12:02:19;19.50;;;8.95;;
72422;SDS011;60413;55.658;37.498;2022-11-06T12:05:35;21.25;;;10.70;;
72422;SDS011;60413;55.658;37.498;2022-11-06T12:08:01;18.88;;;9.02;;
72422;SDS011;60413;55.658;37.498;2022-11-06T12:10:40;20.55;;;9.52;;
72422;SDS011;60413;55.658;37.498;2022-11-06T12:18:31;23.48;;;9.90;;
72422;SDS011;60413;55.658;37.498;2022-11-06T12:24:18;19.08;;;8.27;;
72422;SDS011;60413;55.658;37.498;2022-11-06T12:27:16;17.77;;;7.80;;
72422;SDS011;60413;55.658;37.498;2022-11-06T12:30:15;16.48;;;7.40;;
72422;SDS011;60413;55.658;37.498;2022-11-06T12:36:09;20.70;;;8.60;;
72422;SDS011;60413;55.658;37.498;2022-11-06T12:39:04;16.70;;;7.60;;
72422;SDS011;60413;55.658;37.498;2022-11-06T12:41:38;18.45;;;6.82;;
72422;SDS011;60413;55.658;37.498;2022-11-06T12:44:13;17.05;;;7.53;;
72422;SDS011;60413;55.658;37.498;2022-11-06T12:49:41;23.77;;;9.30;;
72422;SDS011;60413;55.658;37.498;2022-11-06T12:55:32;15.25;;;7.38;;
72422;SDS011;60413;55.658;37.498;2022-11-06T13:01:57;12.77;;;6.25;;
72422;SDS011;60413;55.658;37.498;2022-11-06T13:04:43;18.38;;;6.93;;
72422;SDS011;60413;55.658;37.498;2022-11-06T13:16:06;10.27;;;5.88;;
72422;SDS011;60413;55.658;37.498;2022-11-06T13:18:54;9.88;;;5.13;;
72422;SDS011;60413;55.658;37.498;2022-11-06T13:22:07;12.90;;;5.25;;
72422;SDS011;60413;55.658;37.498;2022-11-06T13:38:15;8.48;;;4.03;;
72422;SDS011;60413;55.658;37.498;2022-11-06T13:40:55;8.57;;;4.88;;
72422;SDS011;60413;55.658;37.498;2022-11-06T13:46:16;10.63;;;5.65;;
72422;SDS011;60413;55.658;37.498;2022-11-06T13:49:35;9.77;;;4.50;;
72422;SDS011;60413;55.658;37.498;2022-11-06T13:52:53;9.70;;;4.22;;
72422;SDS011;60413;55.658;37.498;2022-11-06T13:55:15;10.20;;;3.97;;
72422;SDS011;60413;55.658;37.498;2022-11-06T14:09:04;9.90;;;5.30;;
72422;SDS011;60413;55.658;37.498;2022-11-06T14:11:35;7.78;;;4.47;;
72422;SDS011;60413;55.658;37.498;2022-11-06T14:19:39;9.02;;;4.32;;
72422;SDS011;60413;55.658;37.498;2022-11-06T14:24:58;10.52;;;4.32;;
72422;SDS011;60413;55.658;37.498;2022-11-06T14:32:55;8.48;;;4.40;;
72422;SDS011;60413;55.658;37.498;2022-11-06T14:38:12;12.75;;;5.25;;
72422;SDS011;60413;55.658;37.498;2022-11-06T14:40:42;11.15;;;5.65;;
72422;SDS011;60413;55.658;37.498;2022-11-06T14:46:14;13.32;;;6.07;;
72422;SDS011;60413;55.658;37.498;2022-11-06T14:48:49;10.35;;;4.47;;
72422;SDS011;60413;55.658;37.498;2022-11-06T14:51:24;9.35;;;4.45;;
72422;SDS011;60413;55.658;37.498;2022-11-06T14:53:54;9.05;;;5.28;;
72422;SDS011;60413;55.658;37.498;2022-11-06T14:56:28;9.10;;;4.88;;
72422;SDS011;60413;55.658;37.498;2022-11-06T14:59:13;12.15;;;5.43;;
72422;SDS011;60413;55.658;37.498;2022-11-06T15:01:57;10.57;;;4.55;;
72422;SDS011;60413;55.658;37.498;2022-11-06T15:05:04;15.48;;;5.85;;
72422;SDS011;60413;55.658;37.498;2022-11-06T15:16:48;13.65;;;6.00;;
72422;SDS011;60413;55.658;37.498;2022-11-06T15:19:46;9.68;;;5.30;;
72422;SDS011;60413;55.658;37.498;2022-11-06T15:22:22;16.23;;;7.70;;
72422;SDS011;60413;55.658;37.498;2022-11-06T15:28:38;8.82;;;4.75;;
72422;SDS011;60413;55.658;37.498;2022-11-06T15:37:41;18.08;;;7.05;;
72422;SDS011;60413;55.658;37.498;2022-11-06T15:46:30;20.23;;;7.53;;
72422;SDS011;60413;55.658;37.498;2022-11-06T15:49:33;10.85;;;5.53;;
72422;SDS011;60413;55.658;37.498;2022-11-06T16:01:10;22.70;;;9.02;;
72422;SDS011;60413;55.658;37.498;2022-11-06T16:35:48;18.63;;;7.90;;
72422;SDS011;60413;55.658;37.498;2022-11-06T16:43:09;16.13;;;8.20;;
72422;SDS011;60413;55.658;37.498;2022-11-06T16:51:45;21.42;;;8.95;;
72422;SDS011;60413;55.658;37.498;2022-11-06T16:54:11;15.95;;;7.20;;
72422;SDS011;60413;55.658;37.498;2022-11-06T16:56:49;15.43;;;8.27;;
72422;SDS011;60413;55.658;37.498;2022-11-06T16:59:15;17.45;;;8.05;;
72422;SDS011;60413;55.658;37.498;2022-11-06T17:01:48;15.55;;;7.38;;
72422;SDS011;60413;55.658;37.498;2022-11-06T17:04:24;17.25;;;8.27;;
72422;SDS011;60413;55.658;37.498;2022-11-06T17:06:56;18.25;;;8.23;;
72422;SDS011;60413;55.658;37.498;2022-11-06T17:09:33;19.20;;;8.32;;
72422;SDS011;60413;55.658;37.498;2022-11-06T17:12:00;15.07;;;8.18;;
72422;SDS011;60413;55.658;37.498;2022-11-06T17:14:27;20.38;;;8.77;;
72422;SDS011;60413;55.658;37.498;2022-11-06T17:16:54;20.70;;;8.77;;
72422;SDS011;60413;55.658;37.498;2022-11-06T17:19:25;17.60;;;8.45;;
72422;SDS011;60413;55.658;37.498;2022-11-06T17:21:53;19.33;;;7.57;;
72422;SDS011;60413;55.658;37.498;2022-11-06T17:24:22;16.30;;;7.32;;
72422;SDS011;60413;55.658;37.498;2022-11-06T17:26:52;14.82;;;6.78;;
72422;SDS011;60413;55.658;37.498;2022-11-06T17:29:29;16.83;;;6.72;;
72422;SDS011;60413;55.658;37.498;2022-11-06T17:32:03;19.88;;;8.48;;
72422;SDS011;60413;55.658;37.498;2022-11-06T17:34:38;19.42;;;8.48;;
72422;SDS011;60413;55.658;37.498;2022-11-06T17:37:15;18.00;;;7.40;;
72422;SDS011;60413;55.658;37.498;2022-11-06T17:40:11;13.32;;;6.78;;
72422;SDS011;60413;55.658;37.498;2022-11-06T17:42:40;13.57;;;6.85;;
72422;SDS011;60413;55.658;37.498;2022-11-06T17:45:12;17.63;;;7.65;;
72422;SDS011;60413;55.658;37.498;2022-11-06T17:47:42;18.87;;;7.47;;
72422;SDS011;60413;55.658;37.498;2022-11-06T17:50:14;20.65;;;9.20;;
72422;SDS011;60413;55.658;37.498;2022-11-06T17:52:47;16.13;;;7.18;;
72422;SDS011;60413;55.658;37.498;2022-11-06T17:55:21;16.75;;;6.85;;
72422;SDS011;60413;55.658;37.498;2022-11-06T17:57:50;16.13;;;7.63;;
72422;SDS011;60413;55.658;37.498;2022-11-06T18:00:42;20.92;;;8.35;;
72422;SDS011;60413;55.658;37.498;2022-11-06T18:03:17;18.60;;;8.70;;
72422;SDS011;60413;55.658;37.498;2022-11-06T18:06:29;16.85;;;5.88;;
72422;SDS011;60413;55.658;37.498;2022-11-06T18:09:07;22.90;;;9.23;;
72422;SDS011;60413;55.658;37.498;2022-11-06T18:11:44;21.80;;;10.30;;
72422;SDS011;60413;55.658;37.498;2022-11-06T18:14:32;19.60;;;7.47;;
72422;SDS011;60413;55.658;37.498;2022-11-06T18:17:01;23.00;;;7.80;;
72422;SDS011;60413;55.658;37.498;2022-11-06T18:19:27;27.58;;;8.23;;
72422;SDS011;60413;55.658;37.498;2022-11-06T18:21:56;26.85;;;10.68;;
72422;SDS011;60413;55.658;37.498;2022-11-06T18:24:28;22.10;;;9.38;;
72422;SDS011;60413;55.658;37.498;2022-11-06T18:27:07;21.67;;;8.63;;
72422;SDS011;60413;55.658;37.498;2022-11-06T18:29:38;26.60;;;9.95;;
72422;SDS011;60413;55.658;37.498;2022-11-06T18:32:04;24.88;;;9.07;;
72422;SDS011;60413;55.658;37.498;2022-11-06T18:34:33;21.42;;;9.00;;
72422;SDS011;60413;55.658;37.498;2022-11-06T18:37:33;23.83;;;10.07;;
72422;SDS011;60413;55.658;37.498;2022-11-06T18:40:03;27.15;;;11.18;;
72422;SDS011;60413;55.658;37.498;2022-11-06T18:42:35;21.70;;;8.98;;
72422;SDS011;60413;55.658;37.498;2022-11-06T18:45:10;28.30;;;10.45;;
72422;SDS011;60413;55.658;37.498;2022-11-06T18:47:52;25.75;;;11.02;;
72422;SDS011;60413;55.658;37.498;2022-11-06T18:50:39;25.55;;;10.23;;
72422;SDS011;60413;55.658;37.498;2022-11-06T18:53:14;20.38;;;8.23;;